Time;durP1;ratioP1;P1;durP2;ratioP2;P2;SDS_P1;SDS_P2;PMS_P1;PMS_P2;Temp;Humidity;BMP_temperature;BMP_pressure;BME280_temperature;BME280_humidity;BME280_pressure;Samples;Min_cycle;Max_cycle;Signal;HPM_P1;HPM_P2
2022/11/05 00:09:33;;;;;;;;;;;5.80;99.90;;;;;;5092859;28;20014;-81
2022/11/05 00:17:30;;;;;;;;;;;5.70;99.90;;;;;;5097792;28;19923;-82
2022/11/05 00:19:55;;;;;;;;;;;5.80;99.90;;;;;;5099374;28;19916;-82
2022/11/05 00:25:17;;;;;;;;;;;5.80;99.90;;;;;;5095434;28;19923;-82
2022/11/05 00:27:43;;;;;;;;;;;5.70;99.90;;;;;;5098076;28;19920;-82
2022/11/05 00:30:10;;;;;;;;;;;5.80;99.90;;;;;;5104366;28;19916;-83
2022/11/05 00:32:36;;;;;;;;;;;5.70;99.90;;;;;;5095684;28;20307;-80
2022/11/05 00:35:02;;;;;;;;;;;5.70;99.90;;;;;;5101028;28;19972;-81
2022/11/05 00:37:27;;;;;;;;;;;5.60;99.90;;;;;;5100845;28;19958;-81
2022/11/05 00:39:53;;;;;;;;;;;5.70;99.90;;;;;;5098566;28;19935;-81
2022/11/05 00:45:03;;;;;;;;;;;5.90;99.90;;;;;;5100227;28;19985;-82
2022/11/05 00:50:15;;;;;;;;;;;6.10;99.90;;;;;;5099413;28;20007;-82
2022/11/05 00:52:56;;;;;;;;;;;6.10;99.90;;;;;;5097558;28;19920;-82
2022/11/05 00:55:23;;;;;;;;;;;6.20;99.90;;;;;;5090939;28;19924;-82
2022/11/05 00:57:48;;;;;;;;;;;6.10;99.90;;;;;;5098678;28;19912;-81
2022/11/05 01:00:14;;;;;;;;;;;6.10;99.90;;;;;;5078852;28;19964;-82
2022/11/05 01:02:39;;;;;;;;;;;6.10;99.90;;;;;;5074438;28;19965;-82
2022/11/05 01:05:05;;;;;;;;;;;6.10;99.90;;;;;;5100294;28;20023;-82
2022/11/05 01:07:30;;;;;;;;;;;6.20;99.90;;;;;;5096276;28;19920;-82
2022/11/05 01:09:56;;;;;;;;;;;6.10;99.90;;;;;;5090737;28;20510;-82
2022/11/05 01:12:21;;;;;;;;;;;6.20;99.90;;;;;;5097659;28;19916;-81
2022/11/05 01:14:47;;;;;;;;;;;6.10;99.90;;;;;;5098911;28;19924;-82
2022/11/05 01:17:12;;;;;;;;;;;6.10;99.90;;;;;;5091792;28;20279;-82
2022/11/05 01:19:38;;;;;;;;;;;6.00;99.90;;;;;;5093493;28;19966;-82
2022/11/05 01:22:04;;;;;;;;;;;6.10;99.90;;;;;;5077040;28;19924;-81
2022/11/05 01:24:29;;;;;;;;;;;6.10;99.90;;;;;;5088444;28;19916;-82
2022/11/05 01:26:55;;;;;;;;;;;6.20;99.90;;;;;;5092847;28;19920;-81
2022/11/05 01:29:20;;;;;;;;;;;6.20;99.90;;;;;;5104931;28;20911;-82
2022/11/05 01:31:47;;;;;;;;;;;6.20;99.90;;;;;;5095661;28;19984;-82
2022/11/05 01:34:12;;;;;;;;;;;6.20;99.90;;;;;;5099732;28;20032;-82
2022/11/05 01:36:38;;;;;;;;;;;6.30;99.90;;;;;;5102867;28;20446;-82
2022/11/05 01:39:03;;;;;;;;;;;6.20;99.90;;;;;;5092407;28;19924;-82
2022/11/05 01:41:29;;;;;;;;;;;6.30;99.90;;;;;;5093071;28;20027;-82
2022/11/05 01:43:56;;;;;;;;;;;6.30;99.90;;;;;;5101665;28;19953;-82
2022/11/05 01:46:36;;;;;;;;;;;6.30;99.90;;;;;;5095621;28;19932;-81
2022/11/05 01:49:10;;;;;;;;;;;6.30;99.90;;;;;;5091272;28;19955;-82
2022/11/05 01:51:35;;;;;;;;;;;6.30;99.90;;;;;;5106065;28;19962;-82
2022/11/05 01:54:04;;;;;;;;;;;6.30;99.90;;;;;;5098737;28;19959;-82
2022/11/05 01:56:41;;;;;;;;;;;6.30;99.90;;;;;;5100262;28;19973;-82
2022/11/05 01:59:15;;;;;;;;;;;6.40;99.90;;;;;;5105876;28;19912;-82
2022/11/05 02:01:41;;;;;;;;;;;6.30;99.90;;;;;;5097262;28;19916;-81
2022/11/05 02:04:08;;;;;;;;;;;6.30;99.90;;;;;;5102152;28;20010;-82
2022/11/05 02:06:36;;;;;;;;;;;6.30;99.90;;;;;;5113021;28;19934;-82
2022/11/05 02:09:01;;;;;;;;;;;6.40;99.90;;;;;;5104654;28;19920;-82
2022/11/05 02:11:27;;;;;;;;;;;6.30;99.90;;;;;;5101824;28;20267;-82
2022/11/05 02:13:53;;;;;;;;;;;6.30;99.90;;;;;;5113979;28;20006;-82
2022/11/05 02:16:26;;;;;;;;;;;6.30;99.90;;;;;;5083971;28;20390;-82
2022/11/05 02:19:10;;;;;;;;;;;6.30;99.90;;;;;;5102671;28;19927;-82
2022/11/05 02:21:54;;;;;;;;;;;6.30;99.90;;;;;;5104901;28;19914;-81
2022/11/05 02:24:50;;;;;;;;;;;6.30;99.90;;;;;;5094318;28;19951;-82
2022/11/05 02:27:16;;;;;;;;;;;6.30;99.90;;;;;;5100979;28;19943;-82
2022/11/05 02:29:56;;;;;;;;;;;6.30;99.90;;;;;;5105653;28;19958;-82
2022/11/05 02:32:25;;;;;;;;;;;6.40;99.90;;;;;;5098227;28;19920;-82
2022/11/05 02:34:55;;;;;;;;;;;6.30;99.90;;;;;;5098566;28;20351;-82
2022/11/05 02:37:33;;;;;;;;;;;6.30;99.90;;;;;;5095269;28;19919;-82
2022/11/05 02:39:59;;;;;;;;;;;6.30;99.90;;;;;;5099756;28;20394;-82
2022/11/05 02:42:30;;;;;;;;;;;6.30;99.90;;;;;;5106662;28;20013;-82
2022/11/05 02:45:02;;;;;;;;;;;6.40;99.90;;;;;;5097189;28;19920;-81
2022/11/05 02:47:36;;;;;;;;;;;6.40;99.90;;;;;;5091313;28;19957;-81
2022/11/05 02:50:09;;;;;;;;;;;6.40;99.90;;;;;;5100400;28;19915;-82
2022/11/05 02:52:40;;;;;;;;;;;6.40;99.90;;;;;;5098128;28;19973;-82
2022/11/05 02:55:05;;;;;;;;;;;6.40;99.90;;;;;;5092326;28;19916;-82
2022/11/05 02:57:34;;;;;;;;;;;6.40;99.90;;;;;;5103565;28;19964;-82
2022/11/05 03:00:00;;;;;;;;;;;6.30;99.90;;;;;;5097092;28;19923;-82
2022/11/05 03:02:26;;;;;;;;;;;6.30;99.90;;;;;;5092439;28;20426;-82
2022/11/05 03:04:51;;;;;;;;;;;6.30;99.90;;;;;;5102221;28;19951;-82
2022/11/05 03:07:44;;;;;;;;;;;6.40;99.90;;;;;;5101253;28;20586;-81
2022/11/05 03:10:38;;;;;;;;;;;6.40;99.90;;;;;;5092982;28;19923;-82
2022/11/05 03:13:15;;;;;;;;;;;6.50;99.90;;;;;;5075325;28;19912;-82
2022/11/05 03:15:50;;;;;;;;;;;6.50;99.90;;;;;;5099178;28;19965;-83
2022/11/05 03:18:15;;;;;;;;;;;6.50;99.90;;;;;;5097818;28;19919;-82
2022/11/05 03:20:47;;;;;;;;;;;6.40;99.90;;;;;;5100563;28;19920;-82
2022/11/05 03:23:22;;;;;;;;;;;6.40;99.90;;;;;;5098722;28;19999;-82
2022/11/05 03:25:50;;;;;;;;;;;6.40;99.90;;;;;;5093673;28;19971;-83
2022/11/05 03:28:18;;;;;;;;;;;6.40;99.90;;;;;;5106095;28;19923;-82
2022/11/05 03:30:44;;;;;;;;;;;6.40;99.90;;;;;;5099372;28;19924;-83
2022/11/05 03:33:13;;;;;;;;;;;6.40;99.90;;;;;;5097339;28;20388;-83
2022/11/05 03:35:42;;;;;;;;;;;6.40;99.90;;;;;;5100558;28;19948;-82
2022/11/05 03:38:18;;;;;;;;;;;6.50;99.90;;;;;;5096942;28;19916;-82
2022/11/05 03:40:45;;;;;;;;;;;6.40;99.90;;;;;;5094443;28;19919;-82
2022/11/05 03:43:12;;;;;;;;;;;6.50;99.90;;;;;;5087010;28;19920;-82
2022/11/05 03:45:45;;;;;;;;;;;6.40;99.90;;;;;;5032676;28;1792157;-82
2022/11/05 03:48:12;;;;;;;;;;;6.30;99.90;;;;;;5096763;28;19969;-82
2022/11/05 03:50:48;;;;;;;;;;;6.40;99.90;;;;;;5106037;28;19916;-82
2022/11/05 03:53:15;;;;;;;;;;;6.40;99.90;;;;;;5095741;28;19923;-82
2022/11/05 03:55:55;;;;;;;;;;;6.40;99.90;;;;;;5089723;28;19946;-82
2022/11/05 03:58:21;;;;;;;;;;;6.50;99.90;;;;;;5096602;28;19911;-82
2022/11/05 04:00:48;;;;;;;;;;;6.50;99.90;;;;;;5100722;28;20455;-82
2022/11/05 04:03:13;;;;;;;;;;;6.50;99.90;;;;;;5080334;28;19920;-82
2022/11/05 04:05:39;;;;;;;;;;;6.50;99.90;;;;;;5105686;28;20055;-82
2022/11/05 04:13:33;;;;;;;;;;;6.60;99.90;;;;;;5101540;28;20398;-82
2022/11/05 04:18:53;;;;;;;;;;;6.50;99.90;;;;;;5095037;28;19920;-82
2022/11/05 04:24:09;;;;;;;;;;;6.50;99.90;;;;;;5091479;28;19935;-82
2022/11/05 04:26:35;;;;;;;;;;;6.50;99.90;;;;;;5098024;28;19960;-82
2022/11/05 04:31:44;;;;;;;;;;;6.60;99.90;;;;;;5099696;28;19931;-83
2022/11/05 04:34:10;;;;;;;;;;;6.50;99.90;;;;;;5095926;28;19920;-82
2022/11/05 04:36:35;;;;;;;;;;;6.50;99.90;;;;;;5100015;28;20367;-82
2022/11/05 04:39:01;;;;;;;;;;;6.50;99.90;;;;;;5095312;28;20015;-82
2022/11/05 04:41:26;;;;;;;;;;;6.50;99.90;;;;;;5102020;28;19915;-82
2022/11/05 04:43:52;;;;;;;;;;;6.50;99.90;;;;;;5101419;28;19920;-84
2022/11/05 04:46:17;;;;;;;;;;;6.50;99.90;;;;;;5099048;28;19920;-82
2022/11/05 04:48:43;;;;;;;;;;;6.50;99.90;;;;;;5086775;28;19920;-82
2022/11/05 04:51:08;;;;;;;;;;;6.50;99.90;;;;;;5102403;28;19942;-82
2022/11/05 04:53:34;;;;;;;;;;;6.50;99.90;;;;;;5096861;28;19930;-82
2022/11/05 04:56:17;;;;;;;;;;;6.40;99.90;;;;;;5100610;28;19927;-82
2022/11/05 04:58:43;;;;;;;;;;;6.50;99.90;;;;;;5097641;28;19919;-82
2022/11/05 05:01:11;;;;;;;;;;;6.50;99.90;;;;;;5092291;28;20379;-82
2022/11/05 05:03:36;;;;;;;;;;;6.50;99.90;;;;;;5099816;28;19926;-82
2022/11/05 05:06:02;;;;;;;;;;;6.50;99.90;;;;;;5103055;28;19939;-82
2022/11/05 05:08:27;;;;;;;;;;;6.50;99.90;;;;;;5094700;28;19916;-82
2022/11/05 05:10:53;;;;;;;;;;;6.50;99.90;;;;;;5097007;28;20337;-82
2022/11/05 05:13:18;;;;;;;;;;;6.60;99.90;;;;;;5086493;28;19923;-82
2022/11/05 05:15:44;;;;;;;;;;;6.50;99.90;;;;;;5093265;28;19927;-82
2022/11/05 05:18:09;;;;;;;;;;;6.50;99.90;;;;;;5098283;28;19920;-82
2022/11/05 05:23:33;;;;;;;;;;;6.50;99.90;;;;;;5095422;28;19912;-82
2022/11/05 05:25:59;;;;;;;;;;;6.50;99.90;;;;;;5094735;28;19916;-82
2022/11/05 05:28:25;;;;;;;;;;;6.50;99.90;;;;;;5103296;28;19916;-83
2022/11/05 05:30:51;;;;;;;;;;;6.50;99.90;;;;;;5094271;28;19942;-82
2022/11/05 05:33:16;;;;;;;;;;;6.60;99.90;;;;;;5104786;28;20362;-82
2022/11/05 05:35:42;;;;;;;;;;;6.50;99.90;;;;;;5093502;28;19963;-82
2022/11/05 05:38:07;;;;;;;;;;;6.50;99.90;;;;;;5092265;28;20393;-83
2022/11/05 05:40:33;;;;;;;;;;;6.50;99.90;;;;;;5090296;28;19916;-82
2022/11/05 05:42:58;;;;;;;;;;;6.50;99.90;;;;;;5102056;28;19922;-82
2022/11/05 05:45:24;;;;;;;;;;;6.50;99.90;;;;;;5094091;28;19997;-82
2022/11/05 05:47:49;;;;;;;;;;;6.50;99.90;;;;;;5092054;28;20463;-82
2022/11/05 05:50:15;;;;;;;;;;;6.50;99.90;;;;;;5103954;28;19916;-82
2022/11/05 05:52:40;;;;;;;;;;;6.50;99.90;;;;;;5094920;28;20006;-82
2022/11/05 05:55:06;;;;;;;;;;;6.50;99.90;;;;;;5089087;28;19963;-82
2022/11/05 05:57:32;;;;;;;;;;;6.60;99.90;;;;;;5086026;28;19926;-82
2022/11/05 05:59:59;;;;;;;;;;;6.50;99.90;;;;;;5099364;28;20011;-82
2022/11/05 06:02:25;;;;;;;;;;;6.50;99.90;;;;;;5087755;28;19920;-82
2022/11/05 06:04:50;;;;;;;;;;;6.40;99.90;;;;;;5102724;28;20285;-82
2022/11/05 06:07:16;;;;;;;;;;;6.50;99.90;;;;;;5077427;28;19923;-82
2022/11/05 06:09:41;;;;;;;;;;;6.40;99.90;;;;;;5092619;28;19994;-82
2022/11/05 06:12:07;;;;;;;;;;;6.50;99.90;;;;;;5100709;28;19920;-82
2022/11/05 06:14:32;;;;;;;;;;;6.50;99.90;;;;;;5095260;28;19920;-82
2022/11/05 06:16:58;;;;;;;;;;;6.50;99.90;;;;;;5091917;28;19920;-83
2022/11/05 06:19:23;;;;;;;;;;;6.50;99.90;;;;;;5092972;28;19976;-82
2022/11/05 06:21:49;;;;;;;;;;;6.50;99.90;;;;;;5098571;28;19965;-83
2022/11/05 06:24:14;;;;;;;;;;;6.50;99.90;;;;;;5090592;28;19923;-83
2022/11/05 06:26:42;;;;;;;;;;;6.50;99.90;;;;;;5095068;28;19924;-82
2022/11/05 06:29:10;;;;;;;;;;;6.50;99.90;;;;;;5095816;28;20030;-82
2022/11/05 06:31:36;;;;;;;;;;;6.50;99.90;;;;;;5089456;28;20018;-83
2022/11/05 06:34:01;;;;;;;;;;;6.50;99.90;;;;;;5095043;28;20031;-82
2022/11/05 06:36:27;;;;;;;;;;;6.50;99.90;;;;;;5094765;28;19933;-82
2022/11/05 06:38:52;;;;;;;;;;;6.60;99.90;;;;;;5097324;28;20724;-82
2022/11/05 06:41:18;;;;;;;;;;;6.50;99.90;;;;;;5088378;28;19916;-81
2022/11/05 06:43:43;;;;;;;;;;;6.60;99.90;;;;;;5100330;28;19921;-81
2022/11/05 06:46:09;;;;;;;;;;;6.50;99.90;;;;;;5095239;28;20594;-82
2022/11/05 06:48:35;;;;;;;;;;;6.40;99.90;;;;;;5094207;28;19960;-82
2022/11/05 06:51:01;;;;;;;;;;;6.40;99.90;;;;;;5100175;28;19920;-82
2022/11/05 06:53:26;;;;;;;;;;;6.50;99.90;;;;;;5096196;28;19912;-80
2022/11/05 06:55:52;;;;;;;;;;;6.50;99.90;;;;;;5097771;28;19916;-81
2022/11/05 06:58:18;;;;;;;;;;;6.50;99.90;;;;;;5101883;28;20020;-81
2022/11/05 07:00:43;;;;;;;;;;;6.50;99.90;;;;;;5096738;28;19920;-80
2022/11/05 07:03:09;;;;;;;;;;;6.60;99.90;;;;;;5097551;28;19949;-81
2022/11/05 07:05:40;;;;;;;;;;;6.60;99.90;;;;;;5105294;27;19918;-81
2022/11/05 07:08:06;;;;;;;;;;;6.50;99.90;;;;;;5097649;28;19915;-81
2022/11/05 07:10:31;;;;;;;;;;;6.50;99.90;;;;;;5094280;28;19930;-81
2022/11/05 07:12:57;;;;;;;;;;;6.50;99.90;;;;;;5104891;28;19923;-81
2022/11/05 07:15:22;;;;;;;;;;;6.50;99.90;;;;;;5101727;28;19930;-81
2022/11/05 07:17:48;;;;;;;;;;;6.60;99.90;;;;;;5098411;28;19916;-81
2022/11/05 07:20:13;;;;;;;;;;;6.60;99.90;;;;;;5099390;28;20045;-82
2022/11/05 07:22:39;;;;;;;;;;;6.70;99.90;;;;;;5097295;28;19916;-81
2022/11/05 07:25:05;;;;;;;;;;;6.70;99.90;;;;;;5102727;28;20032;-81
2022/11/05 07:27:30;;;;;;;;;;;6.70;99.90;;;;;;5106839;28;19912;-81
2022/11/05 07:29:56;;;;;;;;;;;6.60;99.90;;;;;;5097892;28;19922;-81
2022/11/05 07:32:22;;;;;;;;;;;6.70;99.90;;;;;;5093283;28;20398;-81
2022/11/05 07:34:47;;;;;;;;;;;6.70;99.90;;;;;;5103112;28;20611;-81
2022/11/05 07:37:15;;;;;;;;;;;6.70;99.90;;;;;;5101724;28;19924;-81
2022/11/05 07:39:40;;;;;;;;;;;6.80;99.90;;;;;;5091660;28;20301;-81
2022/11/05 07:42:08;;;;;;;;;;;6.90;99.90;;;;;;5101609;28;20031;-81
2022/11/05 07:44:34;;;;;;;;;;;6.80;99.90;;;;;;5095931;28;19923;-81
2022/11/05 07:46:59;;;;;;;;;;;6.90;99.90;;;;;;5093721;28;20658;-81
2022/11/05 07:49:25;;;;;;;;;;;6.90;99.90;;;;;;5106379;28;19962;-81
2022/11/05 07:51:50;;;;;;;;;;;6.90;99.90;;;;;;5083264;28;19916;-81
2022/11/05 07:54:16;;;;;;;;;;;6.90;99.90;;;;;;5082393;28;19923;-81
2022/11/05 07:56:41;;;;;;;;;;;7.00;99.90;;;;;;5101936;28;20503;-81
2022/11/05 07:59:07;;;;;;;;;;;7.00;99.90;;;;;;5100060;28;19960;-81
2022/11/05 08:01:33;;;;;;;;;;;7.10;99.90;;;;;;5077420;28;19920;-81
2022/11/05 08:03:58;;;;;;;;;;;7.20;99.90;;;;;;5103373;28;19923;-81
2022/11/05 08:06:24;;;;;;;;;;;7.40;99.90;;;;;;5098498;28;19972;-81
2022/11/05 08:08:49;;;;;;;;;;;7.30;99.90;;;;;;5075306;28;20463;-82
2022/11/05 08:11:15;;;;;;;;;;;7.40;99.90;;;;;;5107229;28;19927;-81
2022/11/05 08:13:41;;;;;;;;;;;7.50;99.90;;;;;;5098774;28;19927;-82
2022/11/05 08:16:08;;;;;;;;;;;7.50;99.90;;;;;;5089050;28;19920;-81
2022/11/05 08:18:33;;;;;;;;;;;7.60;99.90;;;;;;5096307;28;19916;-82
2022/11/05 08:21:00;;;;;;;;;;;7.60;99.90;;;;;;5099862;28;19920;-81
2022/11/05 08:23:26;;;;;;;;;;;7.60;99.90;;;;;;5076698;28;20374;-82
2022/11/05 08:25:52;;;;;;;;;;;7.60;99.90;;;;;;5100337;28;19923;-81
2022/11/05 08:28:20;;;;;;;;;;;7.70;99.90;;;;;;5100920;28;20458;-81
2022/11/05 08:30:52;;;;;;;;;;;7.90;99.90;;;;;;5095459;28;19920;-82
2022/11/05 08:33:19;;;;;;;;;;;7.80;99.90;;;;;;5096704;28;19916;-81
2022/11/05 08:35:45;;;;;;;;;;;7.80;99.90;;;;;;5093647;28;19916;-81
2022/11/05 08:38:14;;;;;;;;;;;7.70;99.90;;;;;;5098206;28;19939;-82
2022/11/05 08:40:40;;;;;;;;;;;7.60;99.90;;;;;;5099001;28;20006;-81
2022/11/05 08:43:06;;;;;;;;;;;7.60;99.90;;;;;;5102005;28;19916;-82
2022/11/05 08:45:32;;;;;;;;;;;7.60;99.90;;;;;;5096897;28;20366;-82
2022/11/05 08:48:08;;;;;;;;;;;7.70;99.90;;;;;;5101578;28;19943;-82
2022/11/05 08:50:34;;;;;;;;;;;7.80;99.90;;;;;;5092577;28;19919;-82
2022/11/05 08:52:59;;;;;;;;;;;7.70;99.90;;;;;;5103089;28;19961;-82
2022/11/05 08:55:25;;;;;;;;;;;7.90;99.90;;;;;;5098748;28;20065;-81
2022/11/05 08:57:58;;;;;;;;;;;7.90;99.90;;;;;;5078685;28;19916;-81
2022/11/05 09:00:24;;;;;;;;;;;7.90;99.90;;;;;;5091039;28;20002;-82
2022/11/05 09:02:49;;;;;;;;;;;7.90;99.90;;;;;;5096487;28;20007;-81
2022/11/05 09:05:15;;;;;;;;;;;8.00;99.90;;;;;;5095512;28;19912;-81
2022/11/05 09:07:40;;;;;;;;;;;8.10;99.90;;;;;;5096451;28;19995;-82
2022/11/05 09:10:06;;;;;;;;;;;8.20;99.90;;;;;;5098117;28;20481;-82
2022/11/05 09:12:31;;;;;;;;;;;8.10;99.90;;;;;;5101638;28;19932;-81
2022/11/05 09:14:57;;;;;;;;;;;8.10;99.90;;;;;;5094850;28;19920;-82
2022/11/05 09:17:22;;;;;;;;;;;8.10;99.90;;;;;;5093516;28;20006;-82
2022/11/05 09:19:48;;;;;;;;;;;8.30;99.90;;;;;;5105950;28;19924;-82
2022/11/05 09:22:14;;;;;;;;;;;8.40;99.90;;;;;;5089822;28;19920;-81
2022/11/05 09:24:40;;;;;;;;;;;8.60;99.90;;;;;;5092984;28;19997;-82
2022/11/05 09:27:09;;;;;;;;;;;8.80;99.90;;;;;;5102630;28;20399;-82
2022/11/05 09:29:34;;;;;;;;;;;9.00;99.90;;;;;;5097530;28;19920;-82
2022/11/05 09:32:00;;;;;;;;;;;9.00;99.90;;;;;;5089006;28;19927;-82
2022/11/05 09:34:25;;;;;;;;;;;8.90;99.90;;;;;;5101018;28;19930;-82
2022/11/05 09:36:51;;;;;;;;;;;8.70;99.90;;;;;;5080169;28;19942;-83
2022/11/05 09:39:16;;;;;;;;;;;9.00;99.90;;;;;;5096955;28;19915;-82
2022/11/05 09:41:43;;;;;;;;;;;9.20;99.90;;;;;;5104412;28;19948;-82
2022/11/05 09:44:12;;;;;;;;;;;9.20;99.90;;;;;;5098338;28;19954;-83
2022/11/05 09:46:57;;;;;;;;;;;9.10;99.90;;;;;;5088791;28;20391;-82
2022/11/05 09:49:38;;;;;;;;;;;8.70;99.90;;;;;;5101893;28;19916;-82
2022/11/05 09:52:04;;;;;;;;;;;8.70;99.90;;;;;;5093685;28;19954;-81
2022/11/05 09:54:30;;;;;;;;;;;8.70;99.90;;;;;;5093461;28;19915;-82
2022/11/05 09:56:56;;;;;;;;;;;8.60;99.90;;;;;;5086659;28;20302;-81
2022/11/05 09:59:22;;;;;;;;;;;8.50;99.90;;;;;;5095773;28;19960;-82
2022/11/05 10:01:48;;;;;;;;;;;8.60;99.90;;;;;;5090977;28;19916;-82
2022/11/05 10:04:18;;;;;;;;;;;8.50;99.90;;;;;;5085657;28;19924;-81
2022/11/05 10:07:04;;;;;;;;;;;8.60;99.90;;;;;;5097887;28;19969;-81
2022/11/05 10:09:56;;;;;;;;;;;8.60;99.90;;;;;;5093103;28;20391;-82
2022/11/05 10:12:34;;;;;;;;;;;8.90;99.90;;;;;;5092648;28;19923;-82
2022/11/05 10:15:10;;;;;;;;;;;9.00;99.90;;;;;;5092998;28;19943;-81
2022/11/05 10:17:37;;;;;;;;;;;9.00;99.90;;;;;;5096403;28;19971;-82
2022/11/05 10:20:28;;;;;;;;;;;9.10;99.90;;;;;;5103558;28;20421;-82
2022/11/05 10:22:55;;;;;;;;;;;9.30;99.90;;;;;;5098380;28;20038;-81
2022/11/05 10:25:21;;;;;;;;;;;9.40;98.60;;;;;;5083713;28;19913;-81
2022/11/05 10:27:49;;;;;;;;;;;9.40;97.30;;;;;;5105674;28;20286;-82
2022/11/05 10:30:15;;;;;;;;;;;9.20;96.80;;;;;;5082715;28;20408;-82
2022/11/05 10:32:41;;;;;;;;;;;9.10;97.50;;;;;;5102435;28;19956;-82
2022/11/05 10:35:10;;;;;;;;;;;9.00;98.90;;;;;;5106974;28;19915;-82
2022/11/05 10:37:36;;;;;;;;;;;9.10;98.80;;;;;;5102149;28;19962;-82
2022/11/05 10:40:04;;;;;;;;;;;9.10;98.10;;;;;;5096998;28;19923;-82
2022/11/05 10:42:53;;;;;;;;;;;9.30;97.00;;;;;;5107100;28;20450;-82
2022/11/05 10:45:33;;;;;;;;;;;9.50;96.90;;;;;;5088894;28;19939;-82
2022/11/05 10:48:22;;;;;;;;;;;9.70;95.70;;;;;;5099124;28;19934;-81
2022/11/05 10:50:47;;;;;;;;;;;9.90;94.90;;;;;;5102678;28;19919;-82
2022/11/05 10:53:15;;;;;;;;;;;10.10;95.50;;;;;;5078964;28;19924;-82
2022/11/05 10:55:42;;;;;;;;;;;10.30;94.50;;;;;;5096068;28;19927;-81
2022/11/05 10:58:13;;;;;;;;;;;10.20;95.30;;;;;;5097999;28;19916;-82
2022/11/05 11:00:39;;;;;;;;;;;9.80;94.00;;;;;;5099236;28;20392;-81
2022/11/05 11:03:25;;;;;;;;;;;9.60;95.10;;;;;;5097643;28;19912;-81
2022/11/05 11:05:56;;;;;;;;;;;9.40;96.10;;;;;;5091592;28;19916;-81
2022/11/05 11:08:23;;;;;;;;;;;9.30;96.90;;;;;;5096520;28;20337;-81
2022/11/05 11:10:50;;;;;;;;;;;9.20;96.10;;;;;;5081464;28;20582;-81
2022/11/05 11:13:23;;;;;;;;;;;9.40;96.90;;;;;;5102945;28;19916;-81
2022/11/05 11:15:49;;;;;;;;;;;9.40;96.10;;;;;;5096799;28;19920;-81
2022/11/05 11:18:26;;;;;;;;;;;9.30;94.90;;;;;;5100104;28;20015;-81
2022/11/05 11:20:52;;;;;;;;;;;9.40;96.10;;;;;;5101186;28;19912;-81
2022/11/05 11:23:17;;;;;;;;;;;9.50;95.00;;;;;;5098640;28;19912;-82
2022/11/05 11:25:49;;;;;;;;;;;9.60;96.00;;;;;;5105615;28;19918;-81
2022/11/05 11:28:18;;;;;;;;;;;9.50;95.60;;;;;;5100301;28;19916;-81
2022/11/05 11:30:51;;;;;;;;;;;9.50;95.10;;;;;;5096161;28;20344;-81
2022/11/05 11:33:21;;;;;;;;;;;9.60;95.30;;;;;;5104197;28;20406;-81
2022/11/05 11:35:47;;;;;;;;;;;9.60;94.60;;;;;;5098001;28;19981;-81
2022/11/05 11:38:13;;;;;;;;;;;9.80;95.50;;;;;;5097496;28;20000;-81
2022/11/05 11:40:39;;;;;;;;;;;9.80;94.40;;;;;;5101464;28;19923;-82
2022/11/05 11:43:12;;;;;;;;;;;10.10;93.40;;;;;;5100438;28;19919;-82
2022/11/05 11:45:45;;;;;;;;;;;10.10;93.80;;;;;;5099612;28;20067;-82
2022/11/05 11:48:15;;;;;;;;;;;10.00;93.20;;;;;;5101235;28;20389;-82
2022/11/05 11:50:41;;;;;;;;;;;9.90;92.20;;;;;;5099987;28;20007;-81
2022/11/05 11:53:19;;;;;;;;;;;9.90;93.00;;;;;;5095273;28;19916;-82
2022/11/05 11:55:56;;;;;;;;;;;9.80;93.50;;;;;;5097687;28;19941;-82
2022/11/05 11:58:24;;;;;;;;;;;9.90;94.00;;;;;;5101915;28;19923;-82
2022/11/05 12:00:54;;;;;;;;;;;9.70;93.10;;;;;;5095588;28;20498;-82
2022/11/05 12:03:19;;;;;;;;;;;9.70;93.00;;;;;;5104353;28;20441;-82
2022/11/05 12:05:45;;;;;;;;;;;9.50;93.10;;;;;;5103290;28;19915;-82
2022/11/05 12:08:21;;;;;;;;;;;9.20;92.80;;;;;;5105642;28;19939;-81
2022/11/05 12:10:55;;;;;;;;;;;9.20;93.80;;;;;;5115368;28;19922;-81
2022/11/05 12:13:21;;;;;;;;;;;9.10;94.50;;;;;;5101561;28;19966;-82
2022/11/05 12:15:47;;;;;;;;;;;9.10;96.50;;;;;;5094746;28;20356;-81
2022/11/05 12:18:18;;;;;;;;;;;9.20;95.20;;;;;;5103489;28;19916;-82
2022/11/05 12:21:02;;;;;;;;;;;9.10;96.00;;;;;;5102233;28;19973;-82
2022/11/05 12:23:40;;;;;;;;;;;8.80;95.70;;;;;;5092120;28;19922;-82
2022/11/05 12:26:21;;;;;;;;;;;8.70;95.10;;;;;;5098105;28;19915;-82
2022/11/05 12:28:47;;;;;;;;;;;8.70;95.50;;;;;;5096198;28;19912;-82
2022/11/05 12:31:20;;;;;;;;;;;8.60;94.60;;;;;;5094086;28;19923;-82
2022/11/05 12:33:55;;;;;;;;;;;8.50;95.00;;;;;;5105086;28;19920;-82
2022/11/05 12:36:35;;;;;;;;;;;8.60;94.60;;;;;;5097817;28;19916;-82
2022/11/05 12:39:03;;;;;;;;;;;8.60;94.90;;;;;;5094689;28;20582;-82
2022/11/05 12:41:32;;;;;;;;;;;8.50;94.70;;;;;;5105377;28;19916;-82
2022/11/05 12:44:13;;;;;;;;;;;8.60;95.30;;;;;;5101941;28;19915;-82
2022/11/05 12:46:57;;;;;;;;;;;8.60;95.80;;;;;;5090305;28;19916;-82
2022/11/05 12:49:29;;;;;;;;;;;8.70;95.80;;;;;;5105274;28;19919;-82
2022/11/05 12:52:03;;;;;;;;;;;8.60;94.90;;;;;;5099280;28;19919;-82
2022/11/05 12:54:47;;;;;;;;;;;8.60;94.50;;;;;;5097561;28;20018;-81
2022/11/05 12:57:13;;;;;;;;;;;8.50;94.80;;;;;;5104042;28;19927;-82
2022/11/05 12:59:42;;;;;;;;;;;8.50;93.80;;;;;;5095370;28;20387;-82
2022/11/05 13:02:26;;;;;;;;;;;8.60;93.70;;;;;;5098148;28;19915;-82
2022/11/05 13:04:54;;;;;;;;;;;8.70;93.40;;;;;;5098785;28;19920;-82
2022/11/05 13:07:24;;;;;;;;;;;9.00;93.70;;;;;;5095083;28;20019;-82
2022/11/05 13:09:52;;;;;;;;;;;9.10;93.70;;;;;;5098640;28;19919;-82
2022/11/05 13:12:20;;;;;;;;;;;9.00;92.30;;;;;;5100595;28;19920;-82
2022/11/05 13:14:50;;;;;;;;;;;8.90;92.30;;;;;;5095350;28;19916;-82
2022/11/05 13:17:24;;;;;;;;;;;8.80;93.20;;;;;;5100900;28;19911;-82
2022/11/05 13:19:53;;;;;;;;;;;8.70;93.80;;;;;;5101602;28;19912;-82
2022/11/05 13:22:18;;;;;;;;;;;8.70;94.20;;;;;;5095896;28;19969;-82
2022/11/05 13:24:54;;;;;;;;;;;8.80;93.80;;;;;;5099818;28;19916;-82
2022/11/05 13:27:38;;;;;;;;;;;8.70;94.00;;;;;;5106050;28;19976;-82
2022/11/05 13:30:05;;;;;;;;;;;8.70;94.30;;;;;;5097159;28;19918;-82
2022/11/05 13:32:35;;;;;;;;;;;8.60;94.80;;;;;;5100160;28;19959;-82
2022/11/05 13:35:06;;;;;;;;;;;8.60;94.80;;;;;;5094343;28;19920;-82
2022/11/05 13:40:21;;;;;;;;;;;8.40;95.40;;;;;;5099169;28;19930;-82
2022/11/05 13:42:59;;;;;;;;;;;8.50;95.30;;;;;;5097767;28;19919;-82
2022/11/05 13:45:43;;;;;;;;;;;8.40;96.10;;;;;;5095017;28;19920;-83
2022/11/05 13:48:18;;;;;;;;;;;8.30;97.30;;;;;;5102015;28;19971;-83
2022/11/05 13:50:49;;;;;;;;;;;8.20;99.90;;;;;;5104732;28;19912;-82
2022/11/05 13:53:34;;;;;;;;;;;8.10;99.90;;;;;;5092584;28;19916;-83
2022/11/05 13:56:03;;;;;;;;;;;8.00;99.90;;;;;;5096928;28;19916;-82
2022/11/05 13:58:34;;;;;;;;;;;8.00;99.90;;;;;;5104497;28;20008;-83
2022/11/05 14:01:19;;;;;;;;;;;8.00;99.90;;;;;;5092291;28;19927;-82
2022/11/05 14:03:49;;;;;;;;;;;8.10;99.90;;;;;;5104931;28;20006;-83
2022/11/05 14:06:22;;;;;;;;;;;8.10;99.90;;;;;;5096089;28;19916;-83
2022/11/05 14:08:48;;;;;;;;;;;8.20;99.90;;;;;;5097995;28;19916;-82
2022/11/05 14:11:19;;;;;;;;;;;8.20;99.90;;;;;;5102949;28;19920;-82
2022/11/05 14:13:45;;;;;;;;;;;8.20;99.90;;;;;;5094102;28;20035;-82
2022/11/05 14:16:18;;;;;;;;;;;8.10;99.90;;;;;;5079527;28;20434;-83
2022/11/05 14:18:45;;;;;;;;;;;8.10;99.90;;;;;;5107716;28;20014;-83
2022/11/05 14:21:26;;;;;;;;;;;8.10;99.90;;;;;;5095478;28;19916;-82
2022/11/05 14:23:54;;;;;;;;;;;8.30;99.90;;;;;;5096998;28;20146;-82
2022/11/05 14:26:31;;;;;;;;;;;8.30;99.90;;;;;;5110625;28;20012;-83
2022/11/05 14:29:02;;;;;;;;;;;8.40;99.90;;;;;;5098338;28;19939;-83
2022/11/05 14:31:29;;;;;;;;;;;8.40;99.90;;;;;;5096698;28;19915;-82
2022/11/05 14:33:58;;;;;;;;;;;8.40;99.90;;;;;;5104042;28;19912;-83
2022/11/05 14:36:23;;;;;;;;;;;8.40;99.90;;;;;;5101568;28;19919;-83
2022/11/05 14:38:50;;;;;;;;;;;8.30;99.90;;;;;;5105038;28;19911;-83
2022/11/05 14:41:16;;;;;;;;;;;8.10;99.90;;;;;;5107590;28;19938;-82
2022/11/05 14:43:44;;;;;;;;;;;8.10;99.90;;;;;;5092844;28;19916;-81
2022/11/05 14:46:11;;;;;;;;;;;8.20;99.90;;;;;;5091831;28;20456;-82
2022/11/05 14:48:42;;;;;;;;;;;8.30;99.90;;;;;;5107276;28;20565;-82
2022/11/05 14:51:20;;;;;;;;;;;8.40;99.90;;;;;;5099623;28;19923;-82
2022/11/05 14:53:46;;;;;;;;;;;8.30;99.90;;;;;;5097518;28;20019;-82
2022/11/05 14:56:13;;;;;;;;;;;8.30;99.90;;;;;;5098658;28;19923;-83
2022/11/05 14:58:39;;;;;;;;;;;8.20;99.90;;;;;;5086388;28;19920;-82
2022/11/05 15:01:07;;;;;;;;;;;8.10;99.90;;;;;;5096551;28;20367;-82
2022/11/05 15:03:32;;;;;;;;;;;8.00;99.90;;;;;;5096680;28;20429;-82
2022/11/05 15:06:04;;;;;;;;;;;7.90;99.90;;;;;;5097029;28;19916;-82
2022/11/05 15:08:36;;;;;;;;;;;7.80;99.90;;;;;;5097516;28;19922;-82
2022/11/05 15:11:13;;;;;;;;;;;7.80;99.90;;;;;;5103686;28;19912;-82
2022/11/05 15:14:01;;;;;;;;;;;7.80;99.90;;;;;;5096762;28;19916;-81
2022/11/05 15:16:32;;;;;;;;;;;7.70;99.90;;;;;;5098341;28;19931;-82
2022/11/05 15:18:58;;;;;;;;;;;7.60;99.90;;;;;;5093841;28;19958;-81
2022/11/05 15:21:24;;;;;;;;;;;7.50;99.90;;;;;;5099670;28;19963;-81